Cheyenne — 9HAK5 — position and weather

sailwx.info

Track history (hours):
 
Tides and Currents Weather Stations Pressure Air Temp Water Temp Dewpoint Dewpoint Depression Visibility Wind Speed Wind Dir Waves Ship Positions

Cheyenne

Last reported at 2014-Oct-16 20:24 UTC. Time now 2014-Oct-31 18:35 UTC.
Position N 44°36' E 035°07'.
Warning: this ship's position is 14 days out of date.

Length 133 m; draft 3 m.

Type: Cargo ship. MMSI: 249607000.

Date/timePositionNaut miles runAvg speedWind from/ knotsBaromVisibWave heightAir tempDewpointWater temp
2014-Oct-16 20:24N 44°36' E 035°07'6 7.7
2014-Oct-16 19:33N 44°34' E 034°58'8 7.8
2014-Oct-16 18:33N 44°32' E 034°48'8 7.9
2014-Oct-16 17:33N 44°29' E 034°38'7 6.8
2014-Oct-16 16:33N 44°27' E 034°28'6 5.6
2014-Oct-16 15:33N 44°25' E 034°21'5 5.4
2014-Oct-16 14:33N 44°23' E 034°14'283 6.9
2014-Oct-14 21:33N 41°20' E 029°19'284 5.6
2014-Oct-12 18:23N 38°09' E 024°45'  
Track history (hours):
 
Tides and Currents Weather Stations Pressure Air Temp Water Temp Dewpoint Dewpoint Depression Visibility Wind Speed Wind Dir Waves Ship Positions

Cheyenne

Last reported at 2014-Oct-16 20:24 UTC. Time now 2014-Oct-31 18:35 UTC.
Position N 44°36' E 035°07'.
Warning: this ship's position is 14 days out of date.

Length 133 m; draft 3 m.

Type: Cargo ship. MMSI: 249607000.

Date/timePositionNaut miles runAvg speedWind from/ knotsBaromVisibWave heightAir tempDewpointWater temp
2014-Oct-16 20:24N 44°36' E 035°07'6 7.7
2014-Oct-16 19:33N 44°34' E 034°58'8 7.8
2014-Oct-16 18:33N 44°32' E 034°48'8 7.9
2014-Oct-16 17:33N 44°29' E 034°38'7 6.8
2014-Oct-16 16:33N 44°27' E 034°28'6 5.6
2014-Oct-16 15:33N 44°25' E 034°21'5 5.4
2014-Oct-16 14:33N 44°23' E 034°14'283 6.9
2014-Oct-14 21:33N 41°20' E 029°19'284 5.6
2014-Oct-12 18:23N 38°09' E 024°45'  

Dump ship's entire track history